This is the latest recevied weather packets stored in our database for station/object W0AVQ. If no packets are shown the sender has not sent any weather packets the latest 1 day(s).
| Time | Temp. | Humidity | Pressure | Rain* | Wind** | Luminosity | Snow |
|---|---|---|---|---|---|---|---|
| 1778095273 | 16.11° C | 62% | 1017.6 hPa | 0 mm | - | 237 W/m² | - |
| 1778094970 | 15.56° C | 65% | 1017.4 hPa | 0 mm | - | 221 W/m² | - |
| 1778092544 | 15° C | 63% | 1017.1 hPa | 0 mm | - | 160 W/m² | - |
| 1778091030 | 15.56° C | 63% | 1017.3 hPa | 0 mm | - | 254 W/m² | - |
| 1778090423 | 15.56° C | 67% | 1017.5 hPa | 0 mm | - | 222 W/m² | - |
| 1778089816 | 14.44° C | 67% | 1017.6 hPa | 0 mm | - | 216 W/m² | - |
| 1778089515 | 14.44° C | 68% | 1017.7 hPa | 0 mm | - | 228 W/m² | - |
| 1778087696 | 14.44° C | 70% | 1017.8 hPa | 0 mm | - | 318 W/m² | - |
| 1778086481 | 13.89° C | 70% | 1017.5 hPa | 0 mm | - | 272 W/m² | - |
| 1778085873 | 13.89° C | 71% | 1017.2 hPa | 0 mm | - | 329 W/m² | - |
| 1778085566 | 13.89° C | 71% | 1016.9 hPa | 0 mm | - | 313 W/m² | - |
| 1778081417 | 11.67° C | 83% | 1017.3 hPa | 0 mm | - | 203 W/m² | - |
| 1778079296 | 11.67° C | 87% | 1017.5 hPa | 0 mm | - | 143 W/m² | - |
| 1778078994 | 11.11° C | 87% | 1017.6 hPa | 0 mm | - | 188 W/m² | - |
| 1778078085 | 10.56° C | 91% | 1017.4 hPa | 0 mm | - | 149 W/m² | - |
| 1778077784 | 10.56° C | 92% | 1017.4 hPa | 0 mm | - | 163 W/m² | - |
| 1778077179 | 10° C | 94% | 1017.5 hPa | 0 mm | - | 139 W/m² | - |
| 1778075666 | 8.89° C | 99% | 1016.7 hPa | 0 mm | - | 104 W/m² | - |
| 1778075058 | 8.89° C | 99% | 1016.4 hPa | 0 mm | - | 92 W/m² | - |
| 1778072633 | 8.89° C | 99% | 1015.8 hPa | 0 mm | - | 68 W/m² | - |
| 1778071424 | 8.33° C | 99% | 1015.2 hPa | 0 mm | - | 75 W/m² | - |
| 1778070820 | 8.33° C | 99% | 1015.3 hPa | 0 mm | - | 51 W/m² | - |
| 1778069912 | 8.33° C | 99% | 1014.9 hPa | 0 mm | - | 49 W/m² | - |
| 1778068399 | 8.33° C | 99% | 1015 hPa | 0 mm | - | 20 W/m² | - |
| 1778065373 | 7.78° C | 99% | 1014.3 hPa | 0 mm | - | 0 W/m² | - |
* Rain latest hour (hover to see other rain measurements)
** Current wind speed in m/s (hover to see current wind gust speed)